Main page


Airports :

Farnborough, England

Farnborough Airport

latitude: 51-17N, longitude: 000-46W, elevation: 65 m

Current weather observation

The report was made 1 hour and 3 minutes ago, at 21:20 UTC
Wind 4 kt from the Southeast, varying between East/Southeast and South/Southwest
Temperature 6°C
Humidity 93%
Pressure 997 hPa
Visibility: 9000 m
Scattered clouds at a height of 1800 ft
showers in vicinity

METAR: EGLF 232120Z 13004KT 110V200 9000 VCSH SCT018 06/05 Q0997

Time: 22:23 (22:23 UTC)


The report was made 5 hours and 7 minutes ago, at 17:16 UTC
Forecast valid from 23 at 18 UTC to 23 at 22 UTC
Wind 12 kt from the West/Southwest
Visibility 10 km or more
Scattered clouds at a height of 2500 ft
from 23 at 18 UTC to 23 at 21 UTC
Wind 5 kt from variable directions
Probability 30% :
from 23 at 20 UTC to 23 at 22 UTC
Visibility: 7000 m
Broken clouds at a height of 1200 ft
rain, drizzle

TAF: EGLF 231716Z 2318/2322 25012KT 9999 SCT025 BECMG 2318/2321 VRB05KT PROB30 TEMPO 2320/2322 7000 RADZ BKN012

Weather observations and forecasts of more than 4000 airports (METAR and TAF reports).

The available stations are represented by yellow and red dots on the map.

Hover mouse over dot to see the name of the station.

Then click to see weather observations and forecasts.

To change the map : click on the green buttons with a black cross to zoom in, on the green button with a dash to zoom out, or on the green arrows for adjacent maps.